Manitou Springs, Colorado
Current Conditions -  °F | °C
As of 4:56 PM on Thursday 18 Dec 2014 (Local Time) from KCWN Reporting Station
Snow Showers Snow Showers  
Wind Chill: 27°   Ceiling: 2000
Heat Index: 34°   Visibility: 10mi
Dew Point: 27°   Wind: 8mph
Humidity: 77%   Direction: 170°S
Pressure: 30.02"   Gusts: NA
Location:  38.86°N, 104.92°W
Report Text: KCWN 182356Z AUTO 17007KT 10SM -SHRASN BKN020 01/M03 A3002 RMK AO2 LTG DSNT S RAB2257E03SHSNB32E36SHRAB36E38SHRAB44E46SHRAB47E49 SLP188 T00091027 10024 20009 52014
Loading
Personal Weather Stations






























Interactive Weather Map New forecast layout! Learn more

10-Day Weather Forecast

Advertisements
Track Severe Weather on mobile